createdAt,value
2019-02-12T00:00:17.907Z,-0.72
2019-02-12T00:01:25.938Z,-0.72
2019-02-12T00:02:34.003Z,-0.76
2019-02-12T00:03:42.057Z,-0.82
2019-02-12T00:04:50.118Z,-0.92
2019-02-12T00:05:58.208Z,-0.94
2019-02-12T00:07:06.205Z,-1.01
2019-02-12T00:08:14.267Z,-0.97
2019-02-12T00:09:22.345Z,-1.01
2019-02-12T00:10:30.407Z,-0.98
2019-02-12T00:11:38.432Z,-0.99
2019-02-12T00:12:46.482Z,-1.04
2019-02-12T00:13:54.553Z,-1.01
2019-02-12T00:15:02.603Z,-1.05
2019-02-12T00:16:10.731Z,-0.97
2019-02-12T00:17:18.717Z,-1.01
2019-02-12T00:18:26.782Z,-0.95
2019-02-12T00:19:34.834Z,-1.10
2019-02-12T00:20:42.897Z,-1.07
2019-02-12T00:21:50.934Z,-0.99
2019-02-12T00:22:58.997Z,-0.97
2019-02-12T00:24:07.042Z,-0.98
2019-02-12T00:25:15.125Z,-0.99
2019-02-12T00:26:23.143Z,-0.95
2019-02-12T00:27:31.209Z,-1.01
2019-02-12T00:28:39.260Z,-0.99
2019-02-12T00:29:47.317Z,-0.99
2019-02-12T00:30:55.389Z,-1.01
2019-02-12T00:32:03.420Z,-0.97
2019-02-12T00:33:11.463Z,-0.86
2019-02-12T00:34:19.557Z,-0.83
2019-02-12T00:35:27.571Z,-0.73
2019-02-12T00:36:35.644Z,-0.73
2019-02-12T00:37:43.713Z,-0.64
2019-02-12T00:38:51.777Z,-0.54
2019-02-12T00:39:59.801Z,-0.42
2019-02-12T00:41:07.861Z,-0.39
2019-02-12T00:42:16.131Z,-0.44
2019-02-12T00:43:23.970Z,-0.42
2019-02-12T00:44:32.052Z,-0.31
2019-02-12T00:45:40.074Z,-0.31
2019-02-12T00:46:48.152Z,-0.31
2019-02-12T00:47:56.190Z,-0.21
2019-02-12T00:49:04.249Z,-0.25
2019-02-12T00:50:12.308Z,-0.18
2019-02-12T00:51:20.494Z,-0.23
2019-02-12T00:52:28.703Z,-0.26
2019-02-12T00:53:36.458Z,-0.19
2019-02-12T00:54:44.588Z,-0.23
2019-02-12T00:55:52.562Z,-0.10
2019-02-12T00:57:00.640Z,-0.15
2019-02-12T00:58:09.315Z,-0.04
2019-02-12T00:59:16.745Z,-0.04
2019-02-12T01:00:24.778Z,-0.07
2019-02-12T01:01:33.146Z,0.00
2019-02-12T01:02:40.893Z,0.02
2019-02-12T01:03:48.987Z,-0.01
2019-02-12T01:04:57.008Z,0.03
2019-02-12T01:06:05.068Z,0.10
2019-02-12T01:07:13.276Z,0.13
2019-02-12T01:08:21.205Z,0.13
2019-02-12T01:09:29.280Z,0.04
2019-02-12T01:10:37.284Z,0.15
2019-02-12T01:11:45.331Z,0.26
2019-02-12T01:12:53.393Z,0.24
2019-02-12T01:14:01.463Z,0.26
2019-02-12T01:15:09.539Z,0.31
2019-02-12T01:16:17.558Z,0.29
2019-02-12T01:17:25.616Z,0.23
2019-02-12T01:18:33.675Z,0.35
2019-02-12T01:19:41.731Z,0.36
2019-02-12T01:20:49.783Z,0.46
2019-02-12T01:21:57.844Z,0.50
2019-02-12T01:23:05.897Z,0.49
2019-02-12T01:24:13.951Z,0.55
2019-02-12T01:25:21.999Z,0.60
2019-02-12T01:26:30.093Z,0.55
2019-02-12T01:27:38.115Z,0.62
2019-02-12T01:28:46.178Z,0.69
2019-02-12T01:29:54.217Z,0.66
2019-02-12T01:31:02.289Z,0.66
2019-02-12T01:32:10.333Z,0.72
2019-02-12T01:33:18.409Z,0.76
2019-02-12T01:34:26.478Z,0.86
2019-02-12T01:35:34.493Z,0.75
2019-02-12T01:36:42.579Z,0.86
2019-02-12T01:37:50.609Z,0.84
2019-02-12T01:38:58.677Z,0.87
2019-02-12T01:40:06.705Z,0.90
2019-02-12T01:41:14.758Z,0.91
2019-02-12T01:42:22.815Z,0.96
2019-02-12T01:43:30.873Z,1.00
2019-02-12T01:44:38.947Z,1.08
2019-02-12T01:45:46.983Z,0.94
2019-02-12T01:46:55.063Z,1.05
2019-02-12T01:48:03.118Z,1.05
2019-02-12T01:49:11.162Z,1.08
2019-02-12T01:50:19.225Z,1.06
2019-02-12T01:51:34.878Z,1.16
2019-02-12T01:52:35.315Z,1.11
2019-02-12T01:53:43.393Z,1.08
2019-02-12T01:54:51.450Z,1.16
2019-02-12T01:55:59.501Z,1.11
2019-02-12T01:57:07.553Z,1.12
2019-02-12T01:58:15.655Z,1.20
2019-02-12T01:59:23.661Z,1.15
2019-02-12T02:00:31.809Z,1.14
2019-02-12T02:01:39.767Z,1.16
2019-02-12T02:02:47.835Z,1.18
2019-02-12T02:03:55.861Z,1.18
2019-02-12T02:05:03.957Z,1.15
2019-02-12T02:06:11.994Z,1.16
2019-02-12T02:07:20.064Z,1.15
2019-02-12T02:08:28.171Z,1.09
2019-02-12T02:09:36.210Z,1.24
2019-02-12T02:10:44.216Z,1.18
2019-02-12T02:11:52.281Z,1.29
2019-02-12T02:13:00.344Z,1.33
2019-02-12T02:14:08.383Z,1.33
2019-02-12T02:15:16.454Z,1.32
2019-02-12T02:16:24.510Z,1.40
2019-02-12T02:17:32.551Z,1.41
2019-02-12T02:18:40.612Z,1.33
2019-02-12T02:19:48.710Z,1.40
2019-02-12T02:20:56.726Z,1.36
2019-02-12T02:22:04.767Z,1.41
2019-02-12T02:23:12.834Z,1.37
2019-02-12T02:24:20.866Z,1.37
2019-02-12T02:25:28.939Z,1.37
2019-02-12T02:26:36.989Z,1.37
2019-02-12T02:27:45.072Z,1.36
2019-02-12T02:28:53.111Z,1.36
2019-02-12T02:30:01.198Z,1.33
2019-02-12T02:31:09.224Z,1.37
2019-02-12T02:32:17.309Z,1.42
2019-02-12T02:33:25.329Z,1.40
2019-02-12T02:34:33.395Z,1.33
2019-02-12T02:35:41.457Z,1.30
2019-02-12T02:36:49.496Z,1.29
2019-02-12T02:37:57.566Z,1.23
2019-02-12T02:39:05.626Z,1.23
2019-02-12T02:40:13.685Z,1.24
2019-02-12T02:41:21.712Z,1.26
2019-02-12T02:42:29.793Z,1.22
2019-02-12T02:43:37.836Z,1.24
2019-02-12T02:44:45.902Z,1.18
2019-02-12T02:45:53.966Z,1.14
2019-02-12T02:47:02.009Z,1.24
2019-02-12T02:48:10.060Z,1.26
2019-02-12T02:49:18.120Z,1.20
2019-02-12T02:50:26.172Z,1.20
2019-02-12T02:51:34.247Z,1.14
2019-02-12T02:52:42.314Z,1.11
2019-02-12T02:53:50.335Z,1.06
2019-02-12T02:54:58.387Z,1.06
2019-02-12T02:56:06.460Z,1.06
2019-02-12T02:57:14.488Z,1.05
2019-02-12T02:58:22.572Z,1.02
2019-02-12T02:59:30.629Z,1.04
2019-02-12T03:00:38.674Z,1.04
2019-02-12T03:01:46.732Z,0.86
2019-02-12T03:02:54.808Z,0.90
2019-02-12T03:04:02.868Z,0.86
2019-02-12T03:05:10.897Z,0.73
2019-02-12T03:06:18.981Z,0.69
2019-02-12T03:07:27.035Z,0.62
2019-02-12T03:08:35.067Z,0.62
2019-02-12T03:09:43.129Z,0.55
2019-02-12T03:10:52.281Z,0.46
2019-02-12T03:11:59.241Z,0.38
2019-02-12T03:13:07.294Z,0.44
2019-02-12T03:14:15.383Z,0.23
2019-02-12T03:15:23.442Z,0.31
2019-02-12T03:16:31.536Z,0.26
2019-02-12T03:17:39.538Z,0.23
2019-02-12T03:18:47.569Z,0.20
2019-02-12T03:19:55.632Z,0.20
2019-02-12T03:21:03.672Z,0.14
2019-02-12T03:22:11.735Z,0.11
2019-02-12T03:23:19.793Z,0.14
2019-02-12T03:24:27.869Z,0.11
2019-02-12T03:25:35.913Z,0.20
2019-02-12T03:26:43.960Z,0.11
2019-02-12T03:27:52.002Z,0.20
2019-02-12T03:29:00.067Z,0.21
2019-02-12T03:30:08.143Z,0.17
2019-02-12T03:31:16.205Z,0.17
2019-02-12T03:32:24.292Z,0.28
2019-02-12T03:33:32.265Z,0.28
2019-02-12T03:34:40.322Z,0.20
2019-02-12T03:35:48.406Z,0.24
2019-02-12T03:36:56.453Z,0.31
2019-02-12T03:38:04.509Z,0.24
2019-02-12T03:39:12.560Z,0.26
2019-02-12T03:40:20.623Z,0.35
2019-02-12T03:41:28.697Z,0.35
2019-02-12T03:42:36.730Z,0.42
2019-02-12T03:43:44.792Z,0.38
2019-02-12T03:44:52.849Z,0.46
2019-02-12T03:46:00.901Z,0.46
2019-02-12T03:47:08.987Z,0.51
2019-02-12T03:48:17.016Z,0.47
2019-02-12T03:49:25.080Z,0.55
2019-02-12T03:50:33.125Z,0.47
2019-02-12T03:51:41.163Z,0.58
2019-02-12T03:52:49.251Z,0.60
2019-02-12T03:53:57.289Z,0.60
2019-02-12T03:55:05.359Z,0.61
2019-02-12T03:56:13.401Z,0.62
2019-02-12T03:57:21.527Z,0.62
2019-02-12T03:58:29.542Z,0.62
2019-02-12T03:59:37.559Z,0.69
2019-02-12T04:00:45.634Z,0.58
2019-02-12T04:01:53.701Z,0.68
2019-02-12T04:03:01.738Z,0.69
2019-02-12T04:04:09.802Z,0.65
2019-02-12T04:05:17.838Z,0.68
2019-02-12T04:06:25.878Z,0.72
2019-02-12T04:07:33.966Z,0.70
2019-02-12T04:08:42.007Z,0.72
2019-02-12T04:09:50.102Z,0.73
2019-02-12T04:10:58.109Z,0.73
2019-02-12T04:12:06.173Z,0.72
2019-02-12T04:13:14.227Z,0.75
2019-02-12T04:14:22.295Z,0.70
2019-02-12T04:15:30.819Z,0.66
2019-02-12T04:16:38.500Z,0.84
2019-02-12T04:17:46.610Z,0.88
2019-02-12T04:18:54.509Z,0.79
2019-02-12T04:20:02.560Z,0.84
2019-02-12T04:21:10.631Z,0.80
2019-02-12T04:22:22.407Z,0.86
2019-02-12T04:23:26.742Z,0.90
2019-02-12T04:24:34.793Z,0.91
2019-02-12T04:25:42.842Z,0.90
2019-02-12T04:26:50.910Z,0.93
2019-02-12T04:27:58.982Z,0.96
2019-02-12T04:29:07.020Z,0.96
2019-02-12T04:30:15.067Z,0.98
2019-02-12T04:31:23.131Z,1.04
2019-02-12T04:32:31.196Z,0.98
2019-02-12T04:33:39.284Z,1.00
2019-02-12T04:34:47.399Z,1.04
2019-02-12T04:35:55.358Z,1.09
2019-02-12T04:37:03.419Z,1.11
2019-02-12T04:38:11.460Z,1.06
2019-02-12T04:39:19.528Z,1.09
2019-02-12T04:40:27.575Z,1.08
2019-02-12T04:41:35.635Z,1.20
2019-02-12T04:42:43.690Z,1.22
2019-02-12T04:43:52.564Z,1.15
2019-02-12T04:44:59.805Z,1.18
2019-02-12T04:46:07.847Z,1.27
2019-02-12T04:47:15.908Z,1.23
2019-02-12T04:48:23.954Z,1.24
2019-02-12T04:49:32.024Z,1.33
2019-02-12T04:50:40.095Z,1.32
2019-02-12T04:51:48.170Z,1.40
2019-02-12T04:52:56.206Z,1.42
2019-02-12T04:54:04.239Z,1.37
2019-02-12T04:55:12.292Z,1.41
2019-02-12T04:56:20.365Z,1.40
2019-02-12T04:57:28.392Z,1.37
2019-02-12T04:58:36.469Z,1.41
2019-02-12T04:59:44.519Z,1.52
2019-02-12T05:00:52.562Z,1.37
2019-02-12T05:02:00.640Z,1.42
2019-02-12T05:03:08.689Z,1.41
2019-02-12T05:04:16.757Z,1.44
2019-02-12T05:05:24.813Z,1.47
2019-02-12T05:06:32.897Z,1.50
2019-02-12T05:07:40.916Z,1.44
2019-02-12T05:08:48.968Z,1.36
2019-02-12T05:09:57.043Z,1.41
2019-02-12T05:11:05.089Z,1.40
2019-02-12T05:12:13.148Z,1.40
2019-02-12T05:13:21.204Z,1.45
2019-02-12T05:14:29.275Z,1.48
2019-02-12T05:15:37.320Z,1.36
2019-02-12T05:16:45.365Z,1.48
2019-02-12T05:17:53.432Z,1.42
2019-02-12T05:19:01.475Z,1.48
2019-02-12T05:20:09.534Z,1.36
2019-02-12T05:21:17.606Z,1.37
2019-02-12T05:22:25.679Z,1.34
2019-02-12T05:23:33.714Z,1.37
2019-02-12T05:24:41.746Z,1.26
2019-02-12T05:25:49.808Z,1.26
2019-02-12T05:26:57.917Z,1.22
2019-02-12T05:28:05.925Z,1.30
2019-02-12T05:29:13.972Z,1.34
2019-02-12T05:30:22.068Z,1.24
2019-02-12T05:31:30.100Z,1.29
2019-02-12T05:32:38.168Z,1.26
2019-02-12T05:33:46.207Z,1.29
2019-02-12T05:34:55.832Z,1.22
2019-02-12T05:36:02.294Z,1.32
2019-02-12T05:37:10.388Z,1.32
2019-02-12T05:38:18.416Z,1.27
2019-02-12T05:39:26.478Z,1.29
2019-02-12T05:40:34.529Z,1.33
2019-02-12T05:41:42.590Z,1.42
2019-02-12T05:42:50.689Z,1.47
2019-02-12T05:43:58.703Z,1.37
2019-02-12T05:45:06.782Z,1.37
2019-02-12T05:46:14.845Z,1.44
2019-02-12T05:47:22.869Z,1.44
2019-02-12T05:48:30.925Z,1.41
2019-02-12T05:49:39.001Z,1.42
2019-02-12T05:50:47.063Z,1.44
2019-02-12T05:51:55.096Z,1.44
2019-02-12T05:53:03.179Z,1.44
2019-02-12T05:54:11.200Z,1.44
2019-02-12T05:55:19.282Z,1.50
2019-02-12T05:56:27.400Z,1.44
2019-02-12T05:57:35.400Z,1.47
2019-02-12T05:58:43.428Z,1.47
2019-02-12T05:59:51.535Z,1.50
2019-02-12T06:00:59.549Z,1.48
2019-02-12T06:02:07.606Z,1.47
2019-02-12T06:03:15.669Z,1.52
2019-02-12T06:04:23.736Z,1.52
2019-02-12T06:05:31.800Z,1.47
2019-02-12T06:06:39.813Z,1.55
2019-02-12T06:07:47.884Z,1.48
2019-02-12T06:08:55.956Z,1.47
2019-02-12T06:10:04.001Z,1.48
2019-02-12T06:11:12.019Z,1.54
2019-02-12T06:12:20.315Z,1.47
2019-02-12T06:13:28.177Z,1.62
2019-02-12T06:14:36.195Z,1.44
2019-02-12T06:15:44.281Z,1.52
2019-02-12T06:16:52.312Z,1.48
2019-02-12T06:18:00.403Z,1.41
2019-02-12T06:19:08.439Z,1.41
2019-02-12T06:20:16.493Z,1.40
2019-02-12T06:21:24.560Z,1.33
2019-02-12T06:22:32.596Z,1.42
2019-02-12T06:23:40.693Z,1.32
2019-02-12T06:24:48.713Z,1.23
2019-02-12T06:25:56.954Z,1.32
2019-02-12T06:27:04.856Z,1.18
2019-02-12T06:28:12.900Z,1.15
2019-02-12T06:29:20.946Z,1.12
2019-02-12T06:30:29.010Z,1.09
2019-02-12T06:31:37.085Z,1.06
2019-02-12T06:32:45.150Z,1.08
2019-02-12T06:33:53.179Z,1.04
2019-02-12T06:35:01.218Z,1.00
2019-02-12T06:36:09.294Z,1.04
2019-02-12T06:37:17.328Z,1.05
2019-02-12T06:38:25.397Z,0.93
2019-02-12T06:39:33.447Z,0.87
2019-02-12T06:40:41.493Z,0.84
2019-02-12T06:41:49.574Z,0.83
2019-02-12T06:42:57.601Z,0.69
2019-02-12T06:44:05.664Z,0.57
2019-02-12T06:45:13.754Z,0.60
2019-02-12T06:46:21.775Z,0.61
2019-02-12T06:47:29.843Z,0.44
2019-02-12T06:48:37.913Z,0.42
2019-02-12T06:49:45.989Z,0.47
2019-02-12T06:50:54.006Z,0.47
2019-02-12T06:52:02.083Z,0.38
2019-02-12T06:53:12.452Z,0.39
2019-02-12T06:54:18.223Z,0.36
2019-02-12T06:55:26.261Z,0.26
2019-02-12T06:56:34.283Z,0.26
2019-02-12T06:57:42.335Z,0.17
2019-02-12T06:58:50.409Z,0.20
2019-02-12T06:59:58.452Z,0.11
2019-02-12T07:01:06.511Z,0.14
2019-02-12T07:02:14.578Z,0.10
2019-02-12T07:03:22.604Z,0.15
2019-02-12T07:04:30.694Z,0.11
2019-02-12T07:05:38.754Z,0.08
2019-02-12T07:06:46.789Z,0.07
2019-02-12T07:07:56.340Z,-0.01
2019-02-12T07:09:02.900Z,0.10
2019-02-12T07:10:10.955Z,0.00
2019-02-12T07:11:19.027Z,0.00
2019-02-12T07:12:27.080Z,-0.08
2019-02-12T07:13:35.133Z,-0.10
2019-02-12T07:14:43.167Z,-0.08
2019-02-12T07:15:51.219Z,-0.04
2019-02-12T07:16:59.293Z,-0.16
2019-02-12T07:18:07.575Z,-0.16
2019-02-12T07:19:15.398Z,-0.14
2019-02-12T07:20:23.460Z,-0.23
2019-02-12T07:21:31.544Z,-0.16
2019-02-12T07:22:39.591Z,-0.23
2019-02-12T07:23:47.634Z,-0.21
2019-02-12T07:24:55.695Z,-0.26
2019-02-12T07:26:03.735Z,-0.25
2019-02-12T07:27:11.819Z,-0.29
2019-02-12T07:28:19.849Z,-0.28
2019-02-12T07:29:28.005Z,-0.39
2019-02-12T07:30:35.952Z,-0.51
2019-02-12T07:31:44.026Z,-0.42
2019-02-12T07:32:52.159Z,-0.46
2019-02-12T07:34:00.118Z,-0.43
2019-02-12T07:35:08.179Z,-0.46
2019-02-12T07:36:16.211Z,-0.57
2019-02-12T07:37:24.286Z,-0.49
2019-02-12T07:38:32.460Z,-0.44
2019-02-12T07:39:40.441Z,-0.49
2019-02-12T07:40:48.445Z,-0.49
2019-02-12T07:41:56.502Z,-0.44
2019-02-12T07:43:04.595Z,-0.40
2019-02-12T07:44:12.617Z,-0.36
2019-02-12T07:45:20.675Z,-0.42
2019-02-12T07:46:28.718Z,-0.39
2019-02-12T07:47:36.796Z,-0.28
2019-02-12T07:48:45.281Z,-0.33
2019-02-12T07:49:52.907Z,-0.29
2019-02-12T07:51:00.965Z,-0.40
2019-02-12T07:52:09.005Z,-0.29
2019-02-12T07:53:17.069Z,-0.31
2019-02-12T07:54:25.133Z,-0.25
2019-02-12T07:55:33.184Z,-0.34
2019-02-12T07:56:41.221Z,-0.18
2019-02-12T07:57:49.299Z,-0.16
2019-02-12T07:58:57.348Z,-0.04
2019-02-12T08:00:05.398Z,0.10
2019-02-12T08:01:13.429Z,0.10
2019-02-12T08:02:21.518Z,0.14
2019-02-12T08:03:29.667Z,0.15
2019-02-12T08:04:37.608Z,0.17
2019-02-12T08:05:45.680Z,0.42
2019-02-12T08:06:53.710Z,0.41
2019-02-12T08:08:01.771Z,0.47
2019-02-12T08:09:09.859Z,0.57
2019-02-12T08:10:17.897Z,0.66
2019-02-12T08:11:25.959Z,0.72
2019-02-12T08:12:34.018Z,0.69
2019-02-12T08:13:42.077Z,0.72
2019-02-12T08:14:50.105Z,0.69
2019-02-12T08:15:58.185Z,0.86
2019-02-12T08:17:06.257Z,0.86
2019-02-12T08:18:14.290Z,1.02
2019-02-12T08:19:22.344Z,1.08
2019-02-12T08:20:30.405Z,1.15
2019-02-12T08:21:38.449Z,1.24
2019-02-12T08:22:46.512Z,1.37
2019-02-12T08:23:54.581Z,1.54
2019-02-12T08:25:02.635Z,1.60
2019-02-12T08:26:10.702Z,1.80
2019-02-12T08:27:18.732Z,1.99
2019-02-12T08:28:26.825Z,2.00
2019-02-12T08:29:34.854Z,2.06
2019-02-12T08:30:42.929Z,2.16
2019-02-12T08:31:50.980Z,2.25
2019-02-12T08:32:59.030Z,2.28
2019-02-12T08:34:07.113Z,2.31
2019-02-12T08:35:15.164Z,2.46
2019-02-12T08:36:23.213Z,2.52
2019-02-12T08:37:32.022Z,2.56
2019-02-12T08:38:39.322Z,2.52
2019-02-12T08:39:47.448Z,2.61
2019-02-12T08:40:55.443Z,2.69
2019-02-12T08:42:03.482Z,2.69
2019-02-12T08:43:11.570Z,2.72
2019-02-12T08:44:19.680Z,2.71
2019-02-12T08:45:27.687Z,2.82
2019-02-12T08:46:35.761Z,2.82
2019-02-12T08:47:43.793Z,2.89
2019-02-12T08:48:51.839Z,2.85
2019-02-12T08:49:59.912Z,2.96
2019-02-12T08:51:07.982Z,2.95
2019-02-12T08:52:16.082Z,3.00
2019-02-12T08:53:24.098Z,3.05
2019-02-12T08:54:32.115Z,3.10
2019-02-12T08:55:40.199Z,3.03
2019-02-12T08:56:48.271Z,3.10
2019-02-12T08:57:56.292Z,3.13
2019-02-12T08:59:04.371Z,3.13
2019-02-12T09:00:12.408Z,3.15
2019-02-12T09:01:20.467Z,3.15
2019-02-12T09:02:28.563Z,3.20
2019-02-12T09:03:36.942Z,3.29
2019-02-12T09:04:44.740Z,3.15
2019-02-12T09:05:52.706Z,3.21
2019-02-12T09:07:00.765Z,3.20
2019-02-12T09:08:08.825Z,3.24
2019-02-12T09:09:16.939Z,3.29
2019-02-12T09:10:24.999Z,3.23
2019-02-12T09:11:32.997Z,3.35
2019-02-12T09:12:41.100Z,3.28
2019-02-12T09:13:49.139Z,3.29
2019-02-12T09:14:57.192Z,3.50
2019-02-12T09:16:05.252Z,3.54
2019-02-12T09:17:13.379Z,3.57
2019-02-12T09:18:21.363Z,3.66
2019-02-12T09:19:29.412Z,3.65
2019-02-12T09:20:37.462Z,3.78
2019-02-12T09:21:45.525Z,3.70
2019-02-12T09:22:53.601Z,3.79
2019-02-12T09:24:03.237Z,3.87
2019-02-12T09:25:09.730Z,4.00
2019-02-12T09:26:19.038Z,4.08
2019-02-12T09:27:25.818Z,4.15
2019-02-12T09:28:33.895Z,4.12
2019-02-12T09:29:42.081Z,4.23
2019-02-12T09:30:50.025Z,4.29
2019-02-12T09:31:58.082Z,4.37
2019-02-12T09:33:06.127Z,4.37
2019-02-12T09:34:14.193Z,4.47
2019-02-12T09:35:22.474Z,4.54
2019-02-12T09:36:30.295Z,4.62
2019-02-12T09:37:38.380Z,4.58
2019-02-12T09:38:46.408Z,4.77
2019-02-12T09:39:54.485Z,4.66
2019-02-12T09:41:02.546Z,4.55
2019-02-12T09:42:10.606Z,4.18
2019-02-12T09:43:18.667Z,4.26
2019-02-12T09:44:26.744Z,4.20
2019-02-12T09:45:34.805Z,4.42
2019-02-12T09:46:42.850Z,4.34
2019-02-12T09:47:50.902Z,4.45
2019-02-12T09:48:59.026Z,4.47
2019-02-12T09:50:07.043Z,4.47
2019-02-12T09:51:15.119Z,4.59
2019-02-12T09:52:23.145Z,4.62
2019-02-12T09:53:31.197Z,4.58
2019-02-12T09:54:39.266Z,4.70
2019-02-12T09:55:47.293Z,4.72
2019-02-12T09:56:55.412Z,4.85
2019-02-12T09:58:03.437Z,4.88
2019-02-12T09:59:11.484Z,5.00
2019-02-12T10:00:19.557Z,5.00
2019-02-12T10:01:27.638Z,5.00
2019-02-12T10:02:35.765Z,5.09
2019-02-12T10:03:43.736Z,5.09
2019-02-12T10:04:51.819Z,5.15
2019-02-12T10:05:59.880Z,5.21
2019-02-12T10:07:07.921Z,5.33
2019-02-12T10:08:16.005Z,5.35
2019-02-12T10:09:24.062Z,5.40
2019-02-12T10:10:32.099Z,5.46
2019-02-12T10:11:40.176Z,5.54
2019-02-12T10:12:49.700Z,5.72
2019-02-12T10:13:56.309Z,5.76
2019-02-12T10:15:04.353Z,5.89
2019-02-12T10:16:12.385Z,5.90
2019-02-12T10:17:20.458Z,5.91
2019-02-12T10:18:28.577Z,5.93
2019-02-12T10:19:36.574Z,5.89
2019-02-12T10:20:44.678Z,5.93
2019-02-12T10:21:52.702Z,5.96
2019-02-12T10:23:00.776Z,5.99
2019-02-12T10:25:16.895Z,5.90
2019-02-12T10:26:24.958Z,5.91
2019-02-12T10:27:33.010Z,5.81
2019-02-12T10:28:48.531Z,5.76
2019-02-12T10:29:49.186Z,5.68
2019-02-12T10:30:57.201Z,5.65
2019-02-12T10:32:08.597Z,5.64
2019-02-12T10:33:13.305Z,5.61
2019-02-12T10:34:21.437Z,5.57
2019-02-12T10:35:29.454Z,5.63
2019-02-12T10:36:37.709Z,5.71
2019-02-12T10:37:45.573Z,5.72
2019-02-12T10:38:53.644Z,5.79
2019-02-12T10:40:01.706Z,5.76
2019-02-12T10:41:09.770Z,5.96
2019-02-12T10:42:17.805Z,5.89
2019-02-12T10:43:26.407Z,5.94
2019-02-12T10:44:33.939Z,6.14
2019-02-12T10:45:42.057Z,6.15
2019-02-12T10:46:50.083Z,6.28
2019-02-12T10:47:58.160Z,6.34
2019-02-12T10:49:06.205Z,6.40
2019-02-12T10:50:14.262Z,6.43
2019-02-12T10:51:22.306Z,6.43
2019-02-12T10:52:30.359Z,6.52
2019-02-12T10:53:38.416Z,6.66
2019-02-12T10:54:46.504Z,6.59
2019-02-12T10:55:54.552Z,6.66
2019-02-12T10:57:02.576Z,6.80
2019-02-12T10:58:10.680Z,6.84
2019-02-12T10:59:18.753Z,6.84
2019-02-12T11:00:26.836Z,6.88
2019-02-12T11:01:34.861Z,6.94
2019-02-12T11:02:42.903Z,6.89
2019-02-12T11:03:50.990Z,6.80
2019-02-12T11:04:59.051Z,6.85
2019-02-12T11:06:07.145Z,6.79
2019-02-12T11:07:15.197Z,6.71
2019-02-12T11:08:23.267Z,6.64
2019-02-12T11:09:31.279Z,6.51
2019-02-12T11:10:39.349Z,6.61
2019-02-12T11:11:47.399Z,6.52
2019-02-12T11:12:55.464Z,6.59
2019-02-12T11:14:03.521Z,6.67
2019-02-12T11:15:11.614Z,6.66
2019-02-12T11:16:19.672Z,6.56
2019-02-12T11:17:27.707Z,6.58
2019-02-12T11:18:35.803Z,6.27
2019-02-12T11:19:43.855Z,6.11
2019-02-12T11:20:51.901Z,6.11
2019-02-12T11:21:59.975Z,6.15
2019-02-12T11:23:08.026Z,6.04
2019-02-12T11:24:16.127Z,6.06
2019-02-12T11:25:24.159Z,6.09
2019-02-12T11:26:32.200Z,6.14
2019-02-12T11:27:40.265Z,6.14
2019-02-12T11:28:48.322Z,6.14
2019-02-12T11:29:56.421Z,6.21
2019-02-12T11:31:04.472Z,6.33
2019-02-12T11:32:12.508Z,6.36
2019-02-12T11:33:20.595Z,6.30
2019-02-12T11:34:28.632Z,6.27
2019-02-12T11:35:36.939Z,6.25
2019-02-12T11:36:44.765Z,6.34
2019-02-12T11:37:52.827Z,6.43
2019-02-12T11:39:00.893Z,6.51
2019-02-12T11:40:08.944Z,6.46
2019-02-12T11:41:17.007Z,6.58
2019-02-12T11:42:25.079Z,6.77
2019-02-12T11:43:33.133Z,6.79
2019-02-12T11:44:41.196Z,6.85
2019-02-12T11:45:49.251Z,6.88
2019-02-12T11:46:57.315Z,6.84
2019-02-12T11:48:05.382Z,6.95
2019-02-12T11:49:13.460Z,6.91
2019-02-12T11:50:21.503Z,6.97
2019-02-12T11:51:29.580Z,6.98
2019-02-12T11:52:37.673Z,6.95
2019-02-12T11:53:45.688Z,6.92
2019-02-12T11:54:53.767Z,7.06
2019-02-12T11:56:01.812Z,7.05
2019-02-12T11:57:09.903Z,7.06
2019-02-12T11:58:17.970Z,6.97
2019-02-12T11:59:26.008Z,6.97
2019-02-12T12:00:34.081Z,6.95
2019-02-12T12:01:42.138Z,6.95
2019-02-12T12:02:50.346Z,6.95
2019-02-12T12:03:58.289Z,6.80
2019-02-12T12:05:06.341Z,6.56
2019-02-12T12:06:14.382Z,6.30
2019-02-12T12:07:22.452Z,6.33
2019-02-12T12:08:30.527Z,6.27
2019-02-12T12:09:38.550Z,6.03
2019-02-12T12:10:46.616Z,6.14
2019-02-12T12:11:54.656Z,6.15
2019-02-12T12:13:02.760Z,6.11
2019-02-12T12:14:10.808Z,5.93
2019-02-12T12:15:18.918Z,5.91
2019-02-12T12:16:26.968Z,5.94
2019-02-12T12:17:35.027Z,5.93
2019-02-12T12:18:43.071Z,5.83
2019-02-12T12:19:51.115Z,5.94
2019-02-12T12:20:59.181Z,5.91
2019-02-12T12:22:07.216Z,5.96
2019-02-12T12:23:15.283Z,5.90
2019-02-12T12:24:23.379Z,5.89
2019-02-12T12:25:31.544Z,5.82
2019-02-12T12:26:39.481Z,5.68
2019-02-12T12:27:47.578Z,5.78
2019-02-12T12:28:55.624Z,5.76
2019-02-12T12:30:03.664Z,5.63
2019-02-12T12:31:11.700Z,5.57
2019-02-12T12:32:19.769Z,5.57
2019-02-12T12:33:27.851Z,5.53
2019-02-12T12:34:35.884Z,5.58
2019-02-12T12:35:43.952Z,5.53
2019-02-12T12:36:51.999Z,5.46
2019-02-12T12:38:00.091Z,5.51
2019-02-12T12:39:08.167Z,5.54
2019-02-12T12:40:16.202Z,5.61
2019-02-12T12:41:24.278Z,5.60
2019-02-12T12:42:32.309Z,5.64
2019-02-12T12:43:40.376Z,5.71
2019-02-12T12:44:49.333Z,5.72
2019-02-12T12:45:56.505Z,5.83
2019-02-12T12:47:04.562Z,5.85
2019-02-12T12:48:12.637Z,5.85
2019-02-12T12:49:20.860Z,5.90
2019-02-12T12:50:28.763Z,5.91
2019-02-12T12:51:36.812Z,5.93
2019-02-12T12:52:44.888Z,5.93
2019-02-12T12:53:52.933Z,5.89
2019-02-12T12:55:01.011Z,6.00
2019-02-12T12:56:09.048Z,6.00
2019-02-12T12:57:17.103Z,6.09
2019-02-12T12:58:25.171Z,6.01
2019-02-12T12:59:33.223Z,6.03
2019-02-12T13:00:41.326Z,6.08
2019-02-12T13:01:49.356Z,6.14
2019-02-12T13:02:57.411Z,6.27
2019-02-12T13:04:05.497Z,6.31
2019-02-12T13:05:13.553Z,6.36
2019-02-12T13:06:21.626Z,6.11
2019-02-12T13:07:29.771Z,6.08
2019-02-12T13:08:39.170Z,6.08
2019-02-12T13:09:45.795Z,6.08
2019-02-12T13:10:53.937Z,5.94
2019-02-12T13:12:01.938Z,6.09
2019-02-12T13:13:09.981Z,5.91
2019-02-12T13:14:18.027Z,5.91
2019-02-12T13:15:26.085Z,5.78
2019-02-12T13:16:34.170Z,5.75
2019-02-12T13:17:42.193Z,5.81
2019-02-12T13:18:50.271Z,5.78
2019-02-12T13:19:58.332Z,5.75
2019-02-12T13:21:06.392Z,5.72
2019-02-12T13:22:14.485Z,5.76
2019-02-12T13:23:22.521Z,5.81
2019-02-12T13:24:30.579Z,5.94
2019-02-12T13:25:38.624Z,5.91
2019-02-12T13:26:47.119Z,6.06
2019-02-12T13:27:54.772Z,6.25
2019-02-12T13:29:02.804Z,6.36
2019-02-12T13:30:10.880Z,6.30
2019-02-12T13:31:18.901Z,6.44
2019-02-12T13:32:26.999Z,6.59
2019-02-12T13:33:35.060Z,6.67
2019-02-12T13:34:43.108Z,6.69
2019-02-12T13:35:51.194Z,6.19
2019-02-12T13:36:59.235Z,6.08
2019-02-12T13:38:07.317Z,6.28
2019-02-12T13:39:15.343Z,6.34
2019-02-12T13:40:23.411Z,6.37
2019-02-12T13:41:31.481Z,6.41
2019-02-12T13:42:39.540Z,6.37
2019-02-12T13:43:47.611Z,6.37
2019-02-12T13:44:55.672Z,6.34
2019-02-12T13:46:03.724Z,6.36
2019-02-12T13:47:11.921Z,6.04
2019-02-12T13:48:19.857Z,6.03
2019-02-12T13:49:28.182Z,6.11
2019-02-12T13:50:35.968Z,6.06
2019-02-12T13:51:44.016Z,6.04
2019-02-12T13:52:52.064Z,6.01
2019-02-12T13:54:00.165Z,5.91
2019-02-12T13:55:15.390Z,5.91
2019-02-12T13:56:16.284Z,5.81
2019-02-12T13:57:24.320Z,5.68
2019-02-12T13:58:32.569Z,5.68
2019-02-12T13:59:40.444Z,5.61
2019-02-12T14:00:48.506Z,5.64
2019-02-12T14:01:56.571Z,5.60
2019-02-12T14:03:04.622Z,5.60
2019-02-12T14:04:12.695Z,5.64
2019-02-12T14:05:20.786Z,5.61
2019-02-12T14:06:28.805Z,5.61
2019-02-12T14:07:36.886Z,5.63
2019-02-12T14:08:44.925Z,5.72
2019-02-12T14:09:52.989Z,5.68
2019-02-12T14:11:01.041Z,5.60
2019-02-12T14:12:09.101Z,5.58
2019-02-12T14:13:17.184Z,5.60
2019-02-12T14:14:25.253Z,5.64
2019-02-12T14:15:33.298Z,5.60
2019-02-12T14:16:41.333Z,5.60
2019-02-12T14:17:49.407Z,5.49
2019-02-12T14:18:57.470Z,5.54
2019-02-12T14:20:05.551Z,5.49
2019-02-12T14:21:13.664Z,5.48
2019-02-12T14:22:21.700Z,5.43
2019-02-12T14:23:29.738Z,5.48
2019-02-12T14:24:37.781Z,5.38
2019-02-12T14:25:45.850Z,5.45
2019-02-12T14:26:53.889Z,5.48
2019-02-12T14:28:01.929Z,5.35
2019-02-12T14:29:10.037Z,5.35
2019-02-12T14:30:18.089Z,5.43
2019-02-12T14:31:26.152Z,5.39
2019-02-12T14:32:34.184Z,5.40
2019-02-12T14:33:42.290Z,5.36
2019-02-12T14:34:50.309Z,5.25
2019-02-12T14:35:58.391Z,5.21
2019-02-12T14:37:06.445Z,5.17
2019-02-12T14:38:14.497Z,5.12
2019-02-12T14:39:22.549Z,5.03
2019-02-12T14:40:30.604Z,5.00
2019-02-12T14:41:38.679Z,4.88
2019-02-12T14:42:46.723Z,4.85
2019-02-12T14:43:54.806Z,4.89
2019-02-12T14:45:02.853Z,4.73
2019-02-12T14:46:10.909Z,4.67
2019-02-12T14:47:18.979Z,4.60
2019-02-12T14:48:27.033Z,4.51
2019-02-12T14:49:35.096Z,4.62
2019-02-12T14:50:43.178Z,4.51
2019-02-12T14:51:51.202Z,4.48
2019-02-12T14:52:59.260Z,4.48
2019-02-12T14:54:07.463Z,4.44
2019-02-12T14:55:15.383Z,4.45
2019-02-12T14:56:23.452Z,4.34
2019-02-12T14:57:31.508Z,4.26
2019-02-12T14:58:39.569Z,4.29
2019-02-12T14:59:47.627Z,4.24
2019-02-12T15:00:55.664Z,4.20
2019-02-12T15:02:03.746Z,4.11
2019-02-12T15:03:11.795Z,4.09